Ana Sayfa
Uydu Görüntüleri 15 günlük hava durumuİklimDenizcilik Siklon Yıldırım Hava limanıSSS Newsletter Hakkında
Hava : Avrupa Afrika Kuzey Amerika Güney Amerika Asya Avustralya-Okyanusya Diğer
Diller Erişim

Istanbul Sabiha Gökçen, Türkiye

Enlem: 40-53-55N, Boylam: 029-18-33E, yükseklik: 95 m


METAR: LTFJ 222320Z VRB02KT CAVOK 18/09 Q1007 NOSIG RMK RWY24 00000KT
TAF: LTFJ 222240Z 2300/2324 21007KT CAVOK TEMPO 2310/2314 22015G25KT TEMPO 2314/2318 22015G25KT

Saat: 02:53 (23:53 UTC)

Current weather observation

Rapor 33 dakika önce saat 23:20 UTC de hazýrlanmýþ.
Rüzgâr 2 kt variable yönünde
Sıcaklık 18°C
Humidity 56%
Basınç 1007 hPa
Görüş 10 km veya daha fazla
1500m altýnda bulut bulunmuyor ve kumulonimbus bulutlarý yok

Birim sistemleri

Forecast

Rapor 1 saat ve 13 dakika önce saat 22:40 UTC de hazýrlanmýþ.
Forecast valid from 23 at 00 UTC to 23 at 24 UTC
Rüzgâr 7 kt yönü güney/güneybatı
Görüş 10 km veya daha fazla
1500m altýnda bulut bulunmuyor ve kumulonimbus bulutlarý yok
Geçici
from 23 at 10 UTC to 23 at 14 UTC
Rüzgâr 15 kt yönü güneybatı deðerine kadar ulaþan gust 25 kt
Geçici
from 23 at 14 UTC to 23 at 18 UTC
Rüzgâr 15 kt yönü güneybatı deðerine kadar ulaþan gust 25 kt
Allmetsat bilgi geçerliliğini garanti etmez sorumluluk reddi
Hava : Avrupa Afrika Kuzey Amerika Güney Amerika Asya Avustralya-Okyanusya Diğer
Uydu Görüntüleri 15 günlük hava durumuİklimDenizcilik Siklon Yıldırım Hava limanıSSS Diller Erişim Newsletter Hakkında